Time;durP1;ratioP1;P1;durP2;ratioP2;P2;SDS_P1;SDS_P2;PMS_P1;PMS_P2;Temp;Humidity;BMP_temperature;BMP_pressure;BME280_temperature;BME280_humidity;BME280_pressure;Samples;Min_cycle;Max_cycle;Signal;HPM_P1;HPM_P2
2022/06/14 00:00:56;;;;;;;8.60;4.55;;;;;;;;;;4952256;28;20417;-71
2022/06/14 00:03:29;;;;;;;12.63;5.10;;;;;;;;;;4955255;28;20379;-70
2022/06/14 00:05:56;;;;;;;7.50;4.25;;;;;;;;;;4969877;28;20336;-71
2022/06/14 00:08:25;;;;;;;8.02;4.80;;;;;;;;;;4969653;28;20349;-70
2022/06/14 00:10:51;;;;;;;8.18;4.32;;;;;;;;;;4952680;28;20451;-71
2022/06/14 00:13:17;;;;;;;9.82;4.40;;;;;;;;;;4969570;28;20432;-71
2022/06/14 00:15:45;;;;;;;9.45;4.18;;;;;;;;;;4952478;28;20044;-70
2022/06/14 00:18:11;;;;;;;11.32;4.85;;;;;;;;;;4970001;28;20489;-71
2022/06/14 00:20:37;;;;;;;13.07;4.78;;;;;;;;;;4951182;28;20447;-71
2022/06/14 00:23:04;;;;;;;8.23;4.10;;;;;;;;;;4951883;28;20339;-71
2022/06/14 00:25:32;;;;;;;7.85;4.10;;;;;;;;;;4928460;28;20420;-71
2022/06/14 00:27:58;;;;;;;10.00;4.30;;;;;;;;;;4981422;28;20355;-71
2022/06/14 00:30:24;;;;;;;8.43;3.97;;;;;;;;;;4969855;28;20430;-71
2022/06/14 00:32:50;;;;;;;9.07;4.45;;;;;;;;;;4969562;28;20554;-71
2022/06/14 00:35:15;;;;;;;10.32;4.57;;;;;;;;;;4970540;28;20464;-71
2022/06/14 00:37:41;;;;;;;8.07;4.07;;;;;;;;;;4969992;28;20344;-71
2022/06/14 00:40:09;;;;;;;9.10;4.43;;;;;;;;;;4951734;28;20439;-71
2022/06/14 00:42:34;;;;;;;7.55;4.13;;;;;;;;;;4969497;28;20083;-71
2022/06/14 00:45:08;;;;;;;9.27;4.18;;;;;;;;;;4951696;28;20034;-71
2022/06/14 00:47:37;;;;;;;7.00;3.50;;;;;;;;;;4969140;28;20460;-70
2022/06/14 00:50:06;;;;;;;6.60;3.80;;;;;;;;;;4952658;28;20426;-71
2022/06/14 00:52:43;;;;;;;6.47;3.30;;;;;;;;;;4969133;28;20611;-70
2022/06/14 00:55:17;;;;;;;8.73;3.53;;;;;;;;;;4951930;28;20399;-71
2022/06/14 00:57:49;;;;;;;5.82;3.60;;;;;;;;;;4951414;28;20515;-71
2022/06/14 01:00:17;;;;;;;5.55;3.50;;;;;;;;;;4969777;28;20404;-71
2022/06/14 01:02:59;;;;;;;7.27;3.77;;;;;;;;;;4967577;28;20439;-71
2022/06/14 01:06:05;;;;;;;6.80;3.38;;;;;;;;;;4988767;28;20463;-71
2022/06/14 01:08:16;;;;;;;8.32;3.50;;;;;;;;;;4973532;28;20359;-71
2022/06/14 01:10:47;;;;;;;10.02;3.40;;;;;;;;;;4988538;28;20412;-71
2022/06/14 01:13:16;;;;;;;5.18;3.00;;;;;;;;;;4988466;28;20511;-71
2022/06/14 01:15:42;;;;;;;6.78;3.42;;;;;;;;;;4971311;28;20348;-71
2022/06/14 01:18:11;;;;;;;4.47;2.67;;;;;;;;;;4970822;28;20471;-71
2022/06/14 01:20:36;;;;;;;6.72;2.90;;;;;;;;;;4974339;28;20498;-71
2022/06/14 01:23:03;;;;;;;5.55;2.83;;;;;;;;;;4992735;28;20428;-71
2022/06/14 01:25:31;;;;;;;7.18;3.50;;;;;;;;;;4974482;28;20056;-71
2022/06/14 01:27:58;;;;;;;6.30;3.20;;;;;;;;;;4974805;28;20500;-70
2022/06/14 01:30:31;;;;;;;6.82;3.05;;;;;;;;;;4974668;28;20351;-71
2022/06/14 01:33:17;;;;;;;5.25;2.90;;;;;;;;;;4992605;28;20482;-72
2022/06/14 01:35:45;;;;;;;6.22;3.28;;;;;;;;;;4992666;28;20460;-71
2022/06/14 01:38:15;;;;;;;8.70;3.20;;;;;;;;;;4974569;28;20344;-71
2022/06/14 01:41:04;;;;;;;3.65;2.72;;;;;;;;;;4974219;28;20341;-71
2022/06/14 01:43:47;;;;;;;;;;;;;;;;;;4992714;28;20367;-71
2022/06/14 01:46:24;;;;;;;5.65;2.80;;;;;;;;;;4992726;28;20263;-71
2022/06/14 01:52:24;;;;;;;6.25;2.85;;;;;;;;;;4992495;28;20537;-71
2022/06/14 01:55:02;;;;;;;4.73;3.10;;;;;;;;;;4973957;28;20060;-71
2022/06/14 01:57:33;;;;;;;4.93;2.65;;;;;;;;;;4992216;28;20600;-71
2022/06/14 02:00:07;;;;;;;6.72;2.85;;;;;;;;;;4991893;28;20090;-71
2022/06/14 02:02:38;;;;;;;5.97;2.88;;;;;;;;;;4974106;28;20379;-71
2022/06/14 02:05:20;;;;;;;6.20;3.10;;;;;;;;;;4973837;28;20348;-71
2022/06/14 02:08:17;;;;;;;5.25;2.40;;;;;;;;;;4973954;28;20340;-71
2022/06/14 02:10:51;;;;;;;8.25;3.13;;;;;;;;;;4974483;28;20451;-71
2022/06/14 02:13:38;;;;;;;6.68;2.83;;;;;;;;;;4973769;28;20389;-71
2022/06/14 02:16:16;;;;;;;7.85;3.05;;;;;;;;;;4973998;28;20343;-71
2022/06/14 02:18:53;;;;;;;;;;;;;;;;;;4974517;28;20406;-71
2022/06/14 02:21:26;;;;;;;7.10;3.38;;;;;;;;;;4970169;28;19916;-71
2022/06/14 02:24:00;;;;;;;4.47;2.38;;;;;;;;;;4970389;28;20399;-71
2022/06/14 02:26:30;;;;;;;9.75;3.13;;;;;;;;;;4971924;28;20364;-70
2022/06/14 02:29:16;;;;;;;11.40;3.00;;;;;;;;;;4953726;28;20387;-71
2022/06/14 02:31:56;;;;;;;5.25;3.03;;;;;;;;;;4970344;28;20483;-70
2022/06/14 02:34:44;;;;;;;5.55;2.97;;;;;;;;;;4973782;28;20507;-71
2022/06/14 02:37:15;;;;;;;3.73;2.47;;;;;;;;;;4969777;28;20523;-71
2022/06/14 02:39:47;;;;;;;4.10;2.38;;;;;;;;;;4970373;28;20578;-71
2022/06/14 02:42:30;;;;;;;6.78;2.65;;;;;;;;;;4970025;28;20444;-71
2022/06/14 02:44:58;;;;;;;6.90;3.08;;;;;;;;;;4970247;28;20029;-71
2022/06/14 02:47:45;;;;;;;5.40;2.67;;;;;;;;;;4971702;28;20436;-71
2022/06/14 02:50:21;;;;;;;4.05;2.60;;;;;;;;;;4969816;28;20087;-71
2022/06/14 02:52:52;;;;;;;4.72;2.60;;;;;;;;;;4971892;28;20411;-70
2022/06/14 02:55:29;;;;;;;4.60;2.30;;;;;;;;;;4953272;28;20352;-71
2022/06/14 02:58:06;;;;;;;10.45;2.42;;;;;;;;;;4969826;28;20021;-71
2022/06/14 03:00:42;;;;;;;6.45;2.78;;;;;;;;;;4969988;28;20025;-70
2022/06/14 03:03:19;;;;;;;4.45;2.25;;;;;;;;;;4971890;28;20029;-70
2022/06/14 03:05:46;;;;;;;4.57;2.50;;;;;;;;;;4969926;28;20029;-71
2022/06/14 03:08:27;;;;;;;3.92;2.30;;;;;;;;;;4971394;28;20487;-71
2022/06/14 03:11:00;;;;;;;5.13;2.65;;;;;;;;;;4969356;28;20432;-71
2022/06/14 03:13:42;;;;;;;4.40;2.17;;;;;;;;;;4971667;28;20426;-70
2022/06/14 03:16:12;;;;;;;3.88;2.58;;;;;;;;;;4969500;28;20507;-71
2022/06/14 03:18:58;;;;;;;4.07;2.60;;;;;;;;;;4972162;28;20057;-71
2022/06/14 03:21:36;;;;;;;4.32;2.53;;;;;;;;;;4968665;28;20511;-71
2022/06/14 03:24:09;;;;;;;5.07;2.47;;;;;;;;;;4953401;28;20480;-71
2022/06/14 03:27:03;;;;;;;3.75;2.67;;;;;;;;;;4969889;28;20433;-70
2022/06/14 03:29:40;;;;;;;5.07;2.38;;;;;;;;;;4969215;28;20026;-71
2022/06/14 03:32:20;;;;;;;4.20;2.25;;;;;;;;;;4969569;28;20033;-71
2022/06/14 03:35:08;;;;;;;4.35;2.28;;;;;;;;;;4952780;28;20056;-71
2022/06/14 03:37:34;;;;;;;2.90;2.10;;;;;;;;;;4969442;28;20448;-70
2022/06/14 03:40:04;;;;;;;4.55;2.38;;;;;;;;;;4969433;28;20475;-70
2022/06/14 03:42:29;;;;;;;3.75;2.42;;;;;;;;;;4968445;28;20424;-71
2022/06/14 03:44:57;;;;;;;4.65;2.15;;;;;;;;;;4971560;28;20496;-71
2022/06/14 03:47:24;;;;;;;4.70;2.28;;;;;;;;;;4970931;28;20025;-70
2022/06/14 03:49:55;;;;;;;4.90;2.58;;;;;;;;;;4970517;28;20432;-70
2022/06/14 03:52:55;;;;;;;2.65;1.70;;;;;;;;;;4970562;28;20324;-71
2022/06/14 03:55:39;;;;;;;3.05;2.00;;;;;;;;;;4969809;28;20097;-71
2022/06/14 03:58:45;;;;;;;4.05;1.67;;;;;;;;;;4970500;28;20419;-71
2022/06/14 04:01:13;;;;;;;4.00;2.20;;;;;;;;;;4928354;28;20465;-71
2022/06/14 04:04:10;;;;;;;5.85;2.25;;;;;;;;;;4975456;28;20390;-72
2022/06/14 04:07:03;;;;;;;3.17;1.88;;;;;;;;;;4970515;28;20162;-71
2022/06/14 04:09:41;;;;;;;2.50;1.75;;;;;;;;;;4968674;28;20104;-71
2022/06/14 04:12:34;;;;;;;5.30;2.03;;;;;;;;;;4970279;28;20425;-71
2022/06/14 04:15:47;;;;;;;3.25;2.05;;;;;;;;;;4968585;28;20420;-71
2022/06/14 04:18:44;;;;;;;2.88;1.85;;;;;;;;;;4959028;28;20045;-71
2022/06/14 04:21:42;;;;;;;2.55;1.77;;;;;;;;;;4967561;28;20492;-71
2022/06/14 04:24:40;;;;;;;3.40;1.92;;;;;;;;;;4953861;28;20440;-71
2022/06/14 04:27:08;;;;;;;;;;;;;;;;;;4947919;28;20361;-71
2022/06/14 04:29:36;;;;;;;4.50;2.13;;;;;;;;;;4969422;28;19909;-71
2022/06/14 04:32:25;;;;;;;3.20;2.00;;;;;;;;;;4968056;28;20527;-71
2022/06/14 04:35:00;;;;;;;3.17;1.85;;;;;;;;;;4969653;28;20029;-71
2022/06/14 04:37:34;;;;;;;3.25;1.95;;;;;;;;;;4970561;28;20527;-71
2022/06/14 04:40:08;;;;;;;3.10;2.05;;;;;;;;;;4968195;28;20060;-71
2022/06/14 04:42:48;;;;;;;5.40;2.40;;;;;;;;;;4951939;28;20306;-71
2022/06/14 04:45:18;;;;;;;3.28;1.92;;;;;;;;;;4968189;28;20360;-71
2022/06/14 04:48:09;;;;;;;5.03;2.17;;;;;;;;;;4969263;28;20467;-71
2022/06/14 04:51:03;;;;;;;2.97;1.90;;;;;;;;;;4967760;28;20345;-71
2022/06/14 04:53:59;;;;;;;5.78;1.88;;;;;;;;;;4948146;28;20510;-71
2022/06/14 04:56:32;;;;;;;3.80;2.08;;;;;;;;;;4968007;28;20459;-71
2022/06/14 04:59:11;;;;;;;2.92;1.70;;;;;;;;;;4967529;28;20409;-71
2022/06/14 05:01:48;;;;;;;3.05;1.77;;;;;;;;;;4968485;28;20025;-71
2022/06/14 05:04:36;;;;;;;2.90;1.88;;;;;;;;;;4968296;28;20041;-71
2022/06/14 05:07:24;;;;;;;3.65;2.10;;;;;;;;;;4968207;28;20508;-71
2022/06/14 05:09:50;;;;;;;;;;;;;;;;;;4968914;28;20396;-71
2022/06/14 05:12:24;;;;;;;2.45;1.65;;;;;;;;;;4967572;28;20243;-71
2022/06/14 05:14:54;;;;;;;3.10;1.90;;;;;;;;;;4969084;28;20427;-71
2022/06/14 05:17:43;;;;;;;1.98;1.60;;;;;;;;;;4969091;28;20294;-71
2022/06/14 05:20:14;;;;;;;4.95;1.60;;;;;;;;;;4968350;28;20383;-71
2022/06/14 05:22:47;;;;;;;3.28;1.85;;;;;;;;;;4967430;28;20403;-71
2022/06/14 05:25:13;;;;;;;2.85;1.52;;;;;;;;;;4967341;28;20440;-71
2022/06/14 05:27:43;;;;;;;3.15;2.00;;;;;;;;;;4967657;28;20521;-71
2022/06/14 05:30:27;;;;;;;3.35;1.83;;;;;;;;;;4969207;28;20351;-71
2022/06/14 05:33:01;;;;;;;3.03;1.65;;;;;;;;;;4969428;28;20325;-71
2022/06/14 05:35:32;;;;;;;2.67;1.55;;;;;;;;;;4969076;28;20025;-72
2022/06/14 05:38:28;;;;;;;1.85;1.40;;;;;;;;;;4967434;28;20395;-70
2022/06/14 05:41:23;;;;;;;3.45;1.88;;;;;;;;;;4969437;28;20420;-71
2022/06/14 05:44:01;;;;;;;2.78;1.80;;;;;;;;;;4952702;28;20520;-71
2022/06/14 05:46:34;;;;;;;2.25;1.63;;;;;;;;;;4967286;28;20437;-71
2022/06/14 05:49:14;;;;;;;3.38;1.70;;;;;;;;;;4967878;28;20474;-71
2022/06/14 05:52:09;;;;;;;1.95;1.60;;;;;;;;;;4967916;28;20442;-71
2022/06/14 05:54:50;;;;;;;2.38;1.30;;;;;;;;;;4968078;28;20335;-71
2022/06/14 05:57:22;;;;;;;4.30;2.17;;;;;;;;;;4967517;28;20080;-71
2022/06/14 05:59:57;;;;;;;2.42;1.60;;;;;;;;;;4968665;28;20436;-71
2022/06/14 06:02:40;;;;;;;3.00;1.60;;;;;;;;;;4967470;28;20340;-71
2022/06/14 06:05:15;;;;;;;3.20;1.60;;;;;;;;;;4968570;28;20033;-71
2022/06/14 06:07:50;;;;;;;2.38;1.35;;;;;;;;;;4971181;28;20340;-72
2022/06/14 06:10:19;;;;;;;2.88;1.63;;;;;;;;;;4972567;28;20437;-71
2022/06/14 06:12:53;;;;;;;1.80;1.35;;;;;;;;;;4970809;28;20352;-71
2022/06/14 06:15:32;;;;;;;2.20;1.60;;;;;;;;;;4971071;28;20438;-71
2022/06/14 06:18:03;;;;;;;2.22;1.63;;;;;;;;;;4970776;28;20379;-71
2022/06/14 06:20:52;;;;;;;2.38;1.38;;;;;;;;;;4972693;28;20463;-70
2022/06/14 06:24:16;;;;;;;2.33;1.50;;;;;;;;;;4991516;28;20025;-70
2022/06/14 06:26:44;;;;;;;2.75;1.40;;;;;;;;;;4967615;28;20382;-70
2022/06/14 06:29:21;;;;;;;2.17;1.25;;;;;;;;;;4991648;28;20487;-70
2022/06/14 06:31:47;;;;;;;3.42;1.25;;;;;;;;;;4973627;28;20347;-70
2022/06/14 06:34:14;;;;;;;3.63;1.70;;;;;;;;;;4973526;28;20332;-69
2022/06/14 06:36:53;;;;;;;2.25;1.25;;;;;;;;;;4973871;28;20405;-69
2022/06/14 06:39:32;;;;;;;3.10;1.63;;;;;;;;;;4973575;28;20108;-69
2022/06/14 06:42:04;;;;;;;2.67;1.45;;;;;;;;;;4973144;28;20336;-69
2022/06/14 06:44:34;;;;;;;2.58;1.27;;;;;;;;;;4973611;28;20460;-69
2022/06/14 06:47:05;;;;;;;3.92;1.58;;;;;;;;;;4990967;28;20439;-69
2022/06/14 06:49:58;;;;;;;1.90;1.23;;;;;;;;;;4992114;28;20456;-69
2022/06/14 06:52:33;;;;;;;3.70;1.60;;;;;;;;;;4973419;28;20562;-69
2022/06/14 06:55:03;;;;;;;2.08;1.33;;;;;;;;;;4973340;28;20025;-69
2022/06/14 06:57:30;;;;;;;2.88;1.20;;;;;;;;;;4973065;28;20359;-68
2022/06/14 06:59:57;;;;;;;1.95;1.33;;;;;;;;;;4956974;28;20431;-69
2022/06/14 07:02:31;;;;;;;1.58;1.40;;;;;;;;;;4973020;28;20324;-69
2022/06/14 07:05:05;;;;;;;2.72;1.38;;;;;;;;;;4973268;28;20436;-68
2022/06/14 07:07:43;;;;;;;1.58;1.10;;;;;;;;;;4974524;28;20497;-69
2022/06/14 07:10:19;;;;;;;3.47;1.50;;;;;;;;;;4992368;28;20435;-68
2022/06/14 07:12:55;;;;;;;2.13;0.93;;;;;;;;;;4972650;28;20431;-68
2022/06/14 07:15:30;;;;;;;1.58;1.13;;;;;;;;;;4991023;28;20306;-69
2022/06/14 07:18:10;;;;;;;1.70;1.25;;;;;;;;;;4991283;28;20025;-68
2022/06/14 07:20:44;;;;;;;2.42;1.10;;;;;;;;;;4989959;28;20387;-69
2022/06/14 07:23:49;;;;;;;1.50;1.30;;;;;;;;;;4972971;28;20025;-68
2022/06/14 07:26:32;;;;;;;3.03;1.17;;;;;;;;;;4924616;28;20356;-68
2022/06/14 07:29:11;;;;;;;1.90;1.02;;;;;;;;;;4972943;28;20029;-68
2022/06/14 07:31:43;;;;;;;;;;;;;;;;;;4973381;28;20547;-68
2022/06/14 07:34:09;;;;;;;3.17;1.40;;;;;;;;;;4990624;28;19935;-68
2022/06/14 07:37:06;;;;;;;1.42;1.13;;;;;;;;;;4972401;28;20340;-68
2022/06/14 07:39:40;;;;;;;1.23;1.00;;;;;;;;;;4972907;28;20439;-68
2022/06/14 07:42:19;;;;;;;1.00;0.90;;;;;;;;;;4972538;28;20375;-66
2022/06/14 07:44:50;;;;;;;;;;;;;;;;;;4972551;28;20037;-68
2022/06/14 07:47:21;;;;;;;2.15;0.90;;;;;;;;;;4972575;28;20405;-67
2022/06/14 07:50:18;;;;;;;1.35;0.85;;;;;;;;;;4990059;28;20320;-68
2022/06/14 07:52:43;;;;;;;1.98;1.10;;;;;;;;;;4948139;28;20341;-68
2022/06/14 07:55:16;;;;;;;1.23;1.00;;;;;;;;;;4990909;28;20363;-68
2022/06/14 07:57:45;;;;;;;1.10;1.00;;;;;;;;;;4972586;28;20435;-67
2022/06/14 08:03:12;;;;;;;2.53;1.27;;;;;;;;;;4974322;28;20232;-68
2022/06/14 08:05:39;;;;;;;3.00;1.13;;;;;;;;;;4971977;28;20426;-67
2022/06/14 08:08:07;;;;;;;2.80;1.30;;;;;;;;;;4972056;28;20412;-67
2022/06/14 08:10:37;;;;;;;1.38;1.00;;;;;;;;;;4971539;28;20320;-67
2022/06/14 08:13:08;;;;;;;1.73;1.20;;;;;;;;;;4971826;28;20535;-66
2022/06/14 08:15:37;;;;;;;1.17;1.00;;;;;;;;;;4972011;28;20328;-67
2022/06/14 08:18:12;;;;;;;;;;;;;;;;;;4972349;28;20443;-68
2022/06/14 08:20:48;;;;;;;1.02;0.85;;;;;;;;;;4989040;28;20393;-67
2022/06/14 08:23:29;;;;;;;1.55;0.82;;;;;;;;;;4989318;28;20326;-67
2022/06/14 08:26:04;;;;;;;1.15;0.80;;;;;;;;;;4955779;28;20297;-67
2022/06/14 08:28:35;;;;;;;1.75;0.95;;;;;;;;;;4971221;28;20383;-68
2022/06/14 08:31:09;;;;;;;2.95;1.10;;;;;;;;;;4989034;28;20367;-67
2022/06/14 08:33:45;;;;;;;1.73;1.13;;;;;;;;;;4971421;28;20439;-68
2022/06/14 08:36:16;;;;;;;1.25;1.00;;;;;;;;;;4971348;28;20407;-68
2022/06/14 08:38:49;;;;;;;1.50;1.02;;;;;;;;;;4989538;28;20373;-67
2022/06/14 08:41:29;;;;;;;1.45;0.80;;;;;;;;;;4971236;28;20301;-69
2022/06/14 08:44:19;;;;;;;2.70;1.00;;;;;;;;;;4989613;28;20033;-68
2022/06/14 08:46:51;;;;;;;2.20;1.33;;;;;;;;;;4971049;28;20444;-68
2022/06/14 08:49:45;;;;;;;1.40;0.90;;;;;;;;;;4989257;28;20440;-67
2022/06/14 08:52:45;;;;;;;1.73;0.90;;;;;;;;;;4971345;28;20033;-67
2022/06/14 08:55:24;;;;;;;1.95;0.80;;;;;;;;;;4938317;28;20466;-68
2022/06/14 08:58:12;;;;;;;1.20;0.77;;;;;;;;;;4989446;28;20344;-67
2022/06/14 09:00:57;;;;;;;1.63;0.85;;;;;;;;;;4951941;28;20550;-67
2022/06/14 09:03:32;;;;;;;1.40;0.80;;;;;;;;;;4989003;28;20531;-67
2022/06/14 09:06:02;;;;;;;3.58;1.08;;;;;;;;;;4988933;28;20395;-69
2022/06/14 09:08:39;;;;;;;1.35;0.90;;;;;;;;;;4989782;28;20378;-70
2022/06/14 09:11:20;;;;;;;1.92;1.02;;;;;;;;;;4989374;28;20531;-68
2022/06/14 09:14:11;;;;;;;2.42;1.00;;;;;;;;;;4988512;28;20447;-67
2022/06/14 09:17:10;;;;;;;0.77;0.65;;;;;;;;;;4989779;28;20459;-67
2022/06/14 09:19:57;;;;;;;1.20;0.80;;;;;;;;;;4988512;28;20425;-68
2022/06/14 09:22:42;;;;;;;1.25;0.70;;;;;;;;;;4988401;28;20056;-67
2022/06/14 09:25:29;;;;;;;1.02;0.90;;;;;;;;;;4970824;28;20048;-68
2022/06/14 09:27:57;;;;;;;0.90;0.80;;;;;;;;;;4938183;28;20439;-67
2022/06/14 09:30:38;;;;;;;1.45;0.90;;;;;;;;;;4988894;28;20371;-68
2022/06/14 09:33:18;;;;;;;2.58;1.00;;;;;;;;;;4988727;28;20454;-67
2022/06/14 09:36:02;;;;;;;1.85;0.95;;;;;;;;;;4988370;28;20032;-68
2022/06/14 09:38:49;;;;;;;0.75;0.57;;;;;;;;;;4989029;28;20386;-68
2022/06/14 09:41:49;;;;;;;0.88;0.70;;;;;;;;;;4992148;28;20424;-68
2022/06/14 09:44:20;;;;;;;1.40;0.85;;;;;;;;;;4992414;28;20115;-67
2022/06/14 09:47:16;;;;;;;1.10;0.70;;;;;;;;;;4992549;28;20029;-67
2022/06/14 09:49:42;;;;;;;1.77;1.05;;;;;;;;;;4974990;28;20467;-68
2022/06/14 09:52:31;;;;;;;1.13;0.60;;;;;;;;;;4992308;28;20086;-68
2022/06/14 09:55:18;;;;;;;1.05;0.68;;;;;;;;;;4992196;28;20353;-68
2022/06/14 09:57:54;;;;;;;0.88;0.70;;;;;;;;;;4992377;28;20428;-67
2022/06/14 10:00:37;;;;;;;1.35;0.75;;;;;;;;;;4974201;28;20094;-67
2022/06/14 10:03:24;;;;;;;2.95;1.25;;;;;;;;;;4801753;28;5001590;-69
2022/06/14 10:06:11;;;;;;;0.80;0.60;;;;;;;;;;4991912;28;20371;-68
2022/06/14 10:08:52;;;;;;;2.20;0.98;;;;;;;;;;4994219;28;20474;-67
2022/06/14 10:11:23;;;;;;;1.48;0.85;;;;;;;;;;4647105;28;10000528;-67
2022/06/14 10:14:04;;;;;;;1.55;0.50;;;;;;;;;;4973967;28;20328;-67
2022/06/14 10:16:48;;;;;;;0.82;0.70;;;;;;;;;;4973883;28;20347;-67
2022/06/14 10:19:32;;;;;;;1.35;0.70;;;;;;;;;;4991796;28;20587;-67
2022/06/14 10:22:22;;;;;;;1.60;0.60;;;;;;;;;;4992234;28;20440;-67
2022/06/14 10:25:00;;;;;;;1.08;0.73;;;;;;;;;;4991565;28;20347;-69
2022/06/14 10:28:13;;;;;;;0.98;0.57;;;;;;;;;;4991613;28;20120;-68
2022/06/14 10:30:57;;;;;;;1.70;0.60;;;;;;;;;;4945300;28;20068;-67
2022/06/14 10:33:46;;;;;;;0.70;0.60;;;;;;;;;;4974248;28;20401;-68
2022/06/14 10:36:33;;;;;;;;;;;;;;;;;;4974378;28;20440;-67
2022/06/14 10:39:26;;;;;;;0.60;0.35;;;;;;;;;;4973485;28;20239;-66
2022/06/14 10:42:06;;;;;;;1.25;0.68;;;;;;;;;;4991240;28;20032;-67
2022/06/14 10:44:56;;;;;;;4.03;0.80;;;;;;;;;;4990953;28;20432;-68
2022/06/14 10:47:46;;;;;;;1.10;0.80;;;;;;;;;;4991165;28;20531;-68
2022/06/14 10:50:31;;;;;;;0.77;0.63;;;;;;;;;;4991405;28;20052;-67
2022/06/14 10:53:50;;;;;;;4.18;0.40;;;;;;;;;;4992008;28;20428;-68
2022/06/14 10:56:31;;;;;;;1.15;0.50;;;;;;;;;;4929901;28;20358;-67
2022/06/14 10:59:43;;;;;;;1.10;0.80;;;;;;;;;;4991015;28;20367;-67
2022/06/14 11:02:33;;;;;;;1.60;0.80;;;;;;;;;;4990625;28;20471;-68
2022/06/14 11:05:01;;;;;;;1.45;0.70;;;;;;;;;;4991110;28;20419;-67
2022/06/14 11:07:55;;;;;;;1.33;0.60;;;;;;;;;;4973307;28;20351;-67
2022/06/14 11:10:45;;;;;;;1.05;0.70;;;;;;;;;;4990933;28;20412;-67
2022/06/14 11:13:45;;;;;;;1.40;0.60;;;;;;;;;;4990600;28;20025;-67
2022/06/14 11:16:26;;;;;;;1.67;0.57;;;;;;;;;;4990817;28;20324;-67
2022/06/14 11:21:55;;;;;;;0.95;0.50;;;;;;;;;;4990050;28;20476;-67
2022/06/14 11:24:28;;;;;;;0.75;0.60;;;;;;;;;;4972523;28;20070;-67
2022/06/14 11:27:04;;;;;;;1.60;0.52;;;;;;;;;;4972773;28;20476;-67
2022/06/14 11:29:53;;;;;;;1.02;0.55;;;;;;;;;;4991211;28;20347;-67
2022/06/14 11:32:38;;;;;;;0.52;0.50;;;;;;;;;;4990596;28;20395;-68
2022/06/14 11:35:42;;;;;;;0.63;0.40;;;;;;;;;;4973358;28;20435;-67
2022/06/14 11:38:33;;;;;;;1.10;0.50;;;;;;;;;;4966943;28;20096;-67
2022/06/14 11:41:05;;;;;;;0.75;0.50;;;;;;;;;;4991964;28;20431;-68
2022/06/14 11:44:08;;;;;;;0.50;0.45;;;;;;;;;;4972512;28;20446;-68
2022/06/14 11:46:46;;;;;;;1.35;0.70;;;;;;;;;;4972613;28;20029;-68
2022/06/14 11:49:24;;;;;;;1.30;0.50;;;;;;;;;;4989864;28;20337;-68
2022/06/14 11:51:52;;;;;;;0.50;0.30;;;;;;;;;;4973015;28;20344;-68
2022/06/14 11:54:35;;;;;;;0.30;0.30;;;;;;;;;;4990063;28;20451;-67
2022/06/14 11:57:12;;;;;;;1.30;0.70;;;;;;;;;;4971973;28;20429;-68
2022/06/14 12:00:09;;;;;;;0.35;0.30;;;;;;;;;;4973617;28;20336;-67
2022/06/14 12:02:55;;;;;;;1.30;0.50;;;;;;;;;;4989565;28;20025;-67
2022/06/14 12:05:44;;;;;;;2.08;0.60;;;;;;;;;;4989811;28;20416;-68
2022/06/14 12:08:25;;;;;;;0.90;0.70;;;;;;;;;;4972001;28;20455;-67
2022/06/14 12:11:25;;;;;;;2.03;0.60;;;;;;;;;;4989365;28;20428;-67
2022/06/14 12:14:00;;;;;;;0.38;0.30;;;;;;;;;;4989486;28;20470;-67
2022/06/14 12:16:42;;;;;;;2.40;0.60;;;;;;;;;;4971794;28;20405;-67
2022/06/14 12:19:19;;;;;;;1.25;0.50;;;;;;;;;;4972141;28;20333;-67
2022/06/14 12:28:13;;;;;;;1.33;0.47;;;;;;;;;;4970225;28;20448;-68
2022/06/14 12:30:41;;;;;;;1.13;0.40;;;;;;;;;;4969808;28;20102;-69
2022/06/14 12:33:15;;;;;;;0.60;0.45;;;;;;;;;;4968538;28;20056;-67
2022/06/14 12:35:51;;;;;;;1.17;0.50;;;;;;;;;;4969871;28;20428;-68
2022/06/14 12:38:20;;;;;;;1.08;0.50;;;;;;;;;;4968195;28;20468;-67
2022/06/14 12:41:11;;;;;;;2.22;0.88;;;;;;;;;;4967844;28;20099;-67
2022/06/14 12:43:56;;;;;;;1.27;0.35;;;;;;;;;;4971104;28;20420;-67
2022/06/14 12:46:25;;;;;;;0.85;0.40;;;;;;;;;;4969447;28;20029;-67
2022/06/14 12:49:02;;;;;;;2.50;0.70;;;;;;;;;;4968111;28;20464;-68
2022/06/14 12:51:54;;;;;;;8.95;0.60;;;;;;;;;;4967777;28;20453;-66
2022/06/14 12:54:35;;;;;;;1.58;0.50;;;;;;;;;;4967931;28;20426;-67
2022/06/14 12:57:21;;;;;;;0.93;0.30;;;;;;;;;;4969560;28;20463;-67
2022/06/14 12:59:56;;;;;;;1.17;0.40;;;;;;;;;;4967468;28;20465;-68
2022/06/14 13:02:46;;;;;;;0.45;0.22;;;;;;;;;;4970132;28;20452;-68
2022/06/14 13:05:11;;;;;;;0.40;0.38;;;;;;;;;;4948034;28;20167;-67
2022/06/14 13:07:44;;;;;;;0.73;0.43;;;;;;;;;;4625753;28;10001390;-67
2022/06/14 13:10:15;;;;;;;0.75;0.35;;;;;;;;;;4968090;28;20025;-67
2022/06/14 13:13:00;;;;;;;0.73;0.40;;;;;;;;;;4969183;28;20488;-67
2022/06/14 13:15:42;;;;;;;1.38;0.60;;;;;;;;;;4970212;28;20048;-68
2022/06/14 13:18:33;;;;;;;0.40;0.32;;;;;;;;;;4971916;28;20436;-68
2022/06/14 13:21:15;;;;;;;1.23;0.43;;;;;;;;;;4976805;28;20434;-68
2022/06/14 13:24:05;;;;;;;1.35;0.70;;;;;;;;;;4993164;28;20420;-67
2022/06/14 13:26:49;;;;;;;0.77;0.43;;;;;;;;;;4993022;28;20366;-67
2022/06/14 13:29:17;;;;;;;0.35;0.30;;;;;;;;;;4992782;28;20448;-67
2022/06/14 13:32:21;;;;;;;1.35;0.50;;;;;;;;;;4992939;28;20486;-67
2022/06/14 13:35:05;;;;;;;0.38;0.38;;;;;;;;;;4992333;28;20475;-67
2022/06/14 13:37:43;;;;;;;1.73;0.60;;;;;;;;;;4992737;28;20447;-67
2022/06/14 13:40:15;;;;;;;1.25;0.38;;;;;;;;;;4975242;28;20403;-67
2022/06/14 13:43:00;;;;;;;1.85;0.50;;;;;;;;;;4974254;28;20383;-67
2022/06/14 13:45:37;;;;;;;0.82;0.63;;;;;;;;;;4992342;28;20363;-67
2022/06/14 13:48:17;;;;;;;2.90;0.50;;;;;;;;;;4992446;28;20348;-67
2022/06/14 13:50:45;;;;;;;0.57;0.30;;;;;;;;;;4993322;28;20416;-67
2022/06/14 13:53:26;;;;;;;0.70;0.70;;;;;;;;;;4992381;28;20351;-67
2022/06/14 13:56:06;;;;;;;1.00;0.50;;;;;;;;;;4992373;28;20455;-67
2022/06/14 13:58:40;;;;;;;0.60;0.38;;;;;;;;;;4992497;28;20400;-67
2022/06/14 14:01:14;;;;;;;1.17;0.40;;;;;;;;;;4973680;28;20115;-67
2022/06/14 14:03:48;;;;;;;0.75;0.30;;;;;;;;;;4973888;28;20451;-66
2022/06/14 14:06:28;;;;;;;15.00;1.30;;;;;;;;;;4974343;28;20048;-67
2022/06/14 14:09:29;;;;;;;6.03;0.95;;;;;;;;;;4991507;28;20455;-67
2022/06/14 14:12:17;;;;;;;10.55;1.00;;;;;;;;;;4991637;28;20379;-67
2022/06/14 14:15:18;;;;;;;10.25;0.82;;;;;;;;;;4992346;28;20416;-67
2022/06/14 14:18:12;;;;;;;3.83;0.95;;;;;;;;;;4991491;28;20459;-68
2022/06/14 14:20:37;;;;;;;13.48;1.60;;;;;;;;;;4959000;28;20044;-68
2022/06/14 14:23:14;;;;;;;6.03;1.67;;;;;;;;;;4991477;28;20099;-67
2022/06/14 14:25:50;;;;;;;7.22;0.75;;;;;;;;;;4991056;28;20028;-67
2022/06/14 14:28:37;;;;;;;11.60;0.70;;;;;;;;;;4990376;28;20420;-67
2022/06/14 14:31:35;;;;;;;5.53;0.85;;;;;;;;;;4990373;28;20482;-68
2022/06/14 14:34:06;;;;;;;;;;;;;;;;;;4990658;28;20494;-68
2022/06/14 14:36:55;;;;;;;3.28;0.57;;;;;;;;;;4973102;28;20361;-68
2022/06/14 14:39:30;;;;;;;6.45;1.52;;;;;;;;;;4645930;28;10001342;-67
2022/06/14 14:42:14;;;;;;;7.57;1.48;;;;;;;;;;4990928;28;20509;-67
2022/06/14 14:44:43;;;;;;;5.43;0.77;;;;;;;;;;4991011;28;20446;-67
2022/06/14 14:47:14;;;;;;;4.65;0.70;;;;;;;;;;4973120;28;20486;-68
2022/06/14 14:50:12;;;;;;;2.90;0.50;;;;;;;;;;4991381;28;20515;-67
2022/06/14 14:52:55;;;;;;;5.43;0.68;;;;;;;;;;4989519;28;20514;-67
2022/06/14 14:55:27;;;;;;;2.38;0.75;;;;;;;;;;4989649;28;20435;-67
2022/06/14 14:58:13;;;;;;;4.60;0.70;;;;;;;;;;4991214;28;20356;-68
2022/06/14 15:07:28;;;;;;;8.57;1.20;;;;;;;;;;4992053;28;20505;-67
2022/06/14 15:10:08;;;;;;;1.10;0.60;;;;;;;;;;4989564;28;20454;-68
2022/06/14 15:12:37;;;;;;;2.92;0.80;;;;;;;;;;4990826;28;20348;-68
2022/06/14 15:15:08;;;;;;;0.85;0.52;;;;;;;;;;4989758;28;20509;-68
2022/06/14 15:20:19;;;;;;;2.35;0.90;;;;;;;;;;4990559;28;20561;-67
2022/06/14 15:22:47;;;;;;;1.42;0.57;;;;;;;;;;4988598;28;20443;-67
2022/06/14 15:25:25;;;;;;;2.20;0.70;;;;;;;;;;4989392;28;20424;-68
2022/06/14 15:27:58;;;;;;;1.42;0.52;;;;;;;;;;4990697;28;20416;-68
2022/06/14 15:30:44;;;;;;;1.10;0.60;;;;;;;;;;4988960;28;20398;-68
2022/06/14 15:33:13;;;;;;;0.73;0.43;;;;;;;;;;4988800;28;20095;-68
2022/06/14 15:35:53;;;;;;;4.38;0.50;;;;;;;;;;4990041;28;20407;-69
2022/06/14 15:38:23;;;;;;;3.95;0.88;;;;;;;;;;4987861;28;20329;-68
2022/06/14 15:41:01;;;;;;;1.48;0.63;;;;;;;;;;4990547;28;20323;-67
2022/06/14 15:43:29;;;;;;;2.92;1.23;;;;;;;;;;4988539;28;20396;-68
2022/06/14 15:45:56;;;;;;;3.97;1.03;;;;;;;;;;4988874;28;20486;-68
2022/06/14 15:48:26;;;;;;;0.43;0.30;;;;;;;;;;4990776;28;20028;-68
2022/06/14 15:51:12;;;;;;;1.95;0.60;;;;;;;;;;4990032;28;20029;-68
2022/06/14 15:53:40;;;;;;;4.38;0.70;;;;;;;;;;4988764;28;20436;-67
2022/06/14 15:56:36;;;;;;;2.20;0.70;;;;;;;;;;4989818;28;20335;-67
2022/06/14 15:59:23;;;;;;;1.25;0.68;;;;;;;;;;4989566;28;20458;-67
2022/06/14 16:01:50;;;;;;;1.73;0.70;;;;;;;;;;4988617;28;20455;-67
2022/06/14 16:04:35;;;;;;;2.25;0.60;;;;;;;;;;4988684;28;20483;-67
2022/06/14 16:07:13;;;;;;;0.65;0.38;;;;;;;;;;4988464;28;20502;-67
2022/06/14 16:09:44;;;;;;;1.15;0.55;;;;;;;;;;4988259;28;20424;-68
2022/06/14 16:12:20;;;;;;;1.30;0.60;;;;;;;;;;4988370;28;20436;-68
2022/06/14 16:14:51;;;;;;;1.65;0.52;;;;;;;;;;4988587;28;20025;-67
2022/06/14 16:17:41;;;;;;;1.60;0.52;;;;;;;;;;4989708;28;20478;-67
2022/06/14 16:20:12;;;;;;;2.38;1.17;;;;;;;;;;4990816;28;20063;-69